Time;durP1;ratioP1;P1;durP2;ratioP2;P2;SDS_P1;SDS_P2;PMS_P1;PMS_P2;Temp;Humidity;BMP_temperature;BMP_pressure;BME280_temperature;BME280_humidity;BME280_pressure;Samples;Min_cycle;Max_cycle;Signal;HPM_P1;HPM_P2
2021/12/25 00:00:12;;;;;;;14.85;4.32;;;-0.90;99.90;;;-1.16;87.67;96577.22;172571;28;1322;-74
2021/12/25 00:00:21;;;;;;;13.49;4.44;;;-0.90;99.90;;;-1.24;87.11;96574.44;171934;28;1248;-75
2021/12/25 00:00:27;;;;;;;16.60;4.73;;;-0.90;99.90;;;-1.25;87.16;96562.22;172546;28;1403;-75
2021/12/25 00:00:35;;;;;;;15.70;4.70;;;-0.90;99.90;;;-1.18;87.16;96577.38;171887;28;1343;-75
2021/12/25 00:00:41;;;;;;;16.02;4.68;;;-0.90;99.90;;;-1.26;86.91;96566.66;171930;28;966;-75
2021/12/25 00:00:47;;;;;;;14.60;4.57;;;-0.90;99.90;;;-1.27;87.03;96562.34;171849;28;966;-75
2021/12/25 00:00:54;;;;;;;13.40;4.47;;;-0.90;99.90;;;-1.30;87.08;96566.13;171240;28;1418;-75
2021/12/25 00:01:06;;;;;;;14.03;4.55;;;-0.90;99.90;;;-1.30;87.00;96560.84;171218;28;931;-74
2021/12/25 00:01:12;;;;;;;13.04;4.64;;;-0.90;99.90;;;-1.21;87.46;96580.28;170627;29;1223;-75
2021/12/25 00:01:21;;;;;;;11.90;4.60;;;-0.90;99.90;;;-1.25;87.08;96570.97;171936;28;1460;-74
2021/12/25 00:01:28;;;;;;;11.84;4.79;;;-0.90;99.90;;;-1.20;86.91;96581.97;171255;28;1029;-74
2021/12/25 00:01:35;;;;;;;12.03;4.77;;;-0.90;99.90;;;-1.20;87.18;96581.13;170577;28;1302;-74
2021/12/25 00:01:42;;;;;;;13.73;4.83;;;-1.00;99.90;;;-1.26;86.88;96576.38;171161;28;1311;-74
2021/12/25 00:01:48;;;;;;;14.00;4.82;;;-0.90;99.90;;;-1.23;87.09;96576.09;171866;28;1659;-75
2021/12/25 00:01:54;;;;;;;15.75;4.72;;;-0.90;99.90;;;-1.19;86.81;96586.25;173322;28;990;-74
2021/12/25 00:02:05;;;;;;;15.20;4.67;;;-1.00;99.90;;;-1.26;87.27;96577.22;173356;28;938;-75
2021/12/25 00:02:11;;;;;;;16.23;4.69;;;-1.00;99.90;;;-1.23;87.02;96582.22;171910;28;1119;-75
2021/12/25 00:02:17;;;;;;;16.33;4.65;;;-0.90;99.90;;;-1.37;86.82;96569.41;171913;28;1217;-75
2021/12/25 00:02:23;;;;;;;13.73;4.55;;;-0.90;99.90;;;-1.39;87.26;96555.50;171337;28;1067;-75
2021/12/25 00:02:29;;;;;;;13.20;4.45;;;-1.00;99.90;;;-1.25;87.02;96584.19;172609;28;1116;-75
2021/12/25 00:02:35;;;;;;;12.52;4.35;;;-0.90;99.90;;;-1.35;87.43;96565.66;173242;28;1227;-74
2021/12/25 00:02:42;;;;;;;12.63;4.50;;;-1.00;99.90;;;-1.29;87.50;96580.13;172699;28;839;-75
2021/12/25 00:02:48;;;;;;;12.47;4.63;;;-1.00;99.90;;;-1.25;86.97;96591.25;171914;28;1341;-74
2021/12/25 00:02:54;;;;;;;13.13;4.90;;;-0.90;99.90;;;-1.37;87.56;96575.53;172013;28;876;-75
2021/12/25 00:03:00;;;;;;;13.48;4.88;;;-0.90;99.90;;;-1.34;87.31;96574.41;171932;28;876;-74
2021/12/25 00:03:06;;;;;;;12.93;4.88;;;-0.90;99.90;;;-1.33;87.42;96578.72;170490;28;1552;-75
2021/12/25 00:03:15;;;;;;;12.40;4.70;;;-1.00;99.90;;;-1.32;87.51;96583.03;171890;28;1224;-75
2021/12/25 00:03:21;;;;;;;13.83;4.53;;;-1.00;99.90;;;-1.31;87.66;96574.16;171995;28;967;-76
2021/12/25 00:03:27;;;;;;;15.00;4.50;;;-1.00;99.90;;;-1.31;87.62;96590.00;172572;28;1432;-75
2021/12/25 00:03:35;;;;;;;14.93;4.57;;;-0.90;99.90;;;-1.37;87.74;96575.53;171897;28;1318;-75
2021/12/25 00:03:41;;;;;;;14.73;4.57;;;-1.00;99.90;;;-1.34;87.74;96574.41;171313;28;943;-75
2021/12/25 00:03:51;;;;;;;13.30;4.43;;;-1.00;99.90;;;-1.30;87.70;96589.03;172620;28;907;-75
2021/12/25 00:03:57;;;;;;;12.77;4.50;;;-1.00;99.90;;;-1.35;87.64;96576.22;172644;28;1134;-75
2021/12/25 00:04:03;;;;;;;12.77;4.50;;;-1.00;99.90;;;-1.27;87.72;96595.84;172599;28;1420;-74
2021/12/25 00:04:09;;;;;;;13.02;4.40;;;-1.00;99.90;;;-1.32;88.04;96583.88;172591;28;903;-74
2021/12/25 00:04:15;;;;;;;13.30;4.53;;;-1.00;99.90;;;-1.35;87.96;96584.13;171856;28;1346;-75
2021/12/25 00:04:22;;;;;;;12.33;4.47;;;-0.90;99.90;;;-1.24;87.89;96591.09;171881;28;1353;-75
2021/12/25 00:04:27;;;;;;;11.87;4.10;;;-1.00;99.90;;;-1.34;87.77;96579.69;171852;28;1388;-75
2021/12/25 00:04:34;;;;;;;11.85;4.10;;;-1.00;99.90;;;-1.24;87.87;96593.75;172602;28;1352;-75
2021/12/25 00:04:40;;;;;;;12.23;4.30;;;-1.00;99.90;;;-1.31;87.75;96588.19;172016;28;1114;-75
2021/12/25 00:04:47;;;;;;;12.45;4.35;;;-1.00;99.90;;;-1.39;87.88;96571.34;170525;28;1294;-75
2021/12/25 00:04:53;;;;;;;13.73;4.37;;;-1.00;99.90;;;-1.25;87.95;96588.63;171880;28;1422;-75
2021/12/25 00:04:59;;;;;;;14.97;4.70;;;-1.00;99.90;;;-1.33;88.01;96587.47;173960;28;1162;-75
2021/12/25 00:05:07;;;;;;;14.45;4.53;;;-1.00;99.90;;;-1.30;88.00;96587.22;172653;28;1029;-75
2021/12/25 00:05:14;;;;;;;14.77;4.30;;;-1.00;99.90;;;-1.31;88.22;96585.56;171891;28;941;-75
2021/12/25 00:05:20;;;;;;;14.04;4.56;;;-1.00;99.90;;;-1.33;88.11;96584.00;171882;28;1396;-75
2021/12/25 00:05:26;;;;;;;12.78;4.88;;;-1.00;99.90;;;-1.29;88.29;96588.88;172680;28;986;-75
2021/12/25 00:05:32;;;;;;;12.35;4.63;;;-1.00;99.90;;;-1.36;88.34;96579.84;172005;28;1098;-74
2021/12/25 00:05:38;;;;;;;11.55;4.70;;;-1.00;99.90;;;-1.27;88.40;96596.66;172598;28;1046;-74
2021/12/25 00:05:52;;;;;;;11.75;4.57;;;-1.00;99.90;;;-1.40;88.55;96575.78;171235;28;1539;-75
2021/12/25 00:05:58;;;;;;;12.55;4.55;;;-1.00;99.90;;;-1.32;88.30;96591.78;172472;28;1393;-75
2021/12/25 00:06:05;;;;;;;13.47;4.73;;;-1.00;99.90;;;-1.39;87.86;96571.34;172752;28;919;-74
2021/12/25 00:06:11;;;;;;;14.60;4.97;;;-1.00;99.90;;;-1.31;88.13;96587.34;171379;28;2813;-75
2021/12/25 00:06:18;;;;;;;14.50;5.03;;;-1.00;99.90;;;-1.25;88.01;96597.38;173880;28;1317;-75
2021/12/25 00:06:25;;;;;;;14.27;4.83;;;-1.00;99.90;;;-1.40;88.08;96569.69;173353;28;1069;-75
2021/12/25 00:06:31;;;;;;;16.17;4.23;;;-1.00;99.90;;;-1.29;87.90;96582.75;173212;28;1254;-75
2021/12/25 00:06:37;;;;;;;14.40;4.05;;;-1.00;99.90;;;-1.34;88.21;96583.16;173877;28;1409;-75
2021/12/25 00:06:44;;;;;;;12.43;4.00;;;-1.00;99.90;;;-1.25;88.13;96592.09;172545;28;1783;-75
2021/12/25 00:06:50;;;;;;;12.80;4.06;;;-1.00;99.90;;;-1.52;88.28;96553.13;172668;28;1445;-75
2021/12/25 00:06:56;;;;;;;11.37;4.23;;;-1.00;99.90;;;-1.27;88.21;96583.47;173231;28;1336;-75
2021/12/25 00:07:02;;;;;;;10.93;4.57;;;-1.00;99.90;;;-1.43;87.94;96572.59;172543;28;1408;-75
2021/12/25 00:07:08;;;;;;;12.00;4.84;;;-1.00;99.90;;;-1.32;87.88;96585.69;172466;28;1599;-74
2021/12/25 00:07:14;;;;;;;13.50;4.85;;;-1.00;99.90;;;-1.39;87.95;96574.00;173303;28;883;-75
2021/12/25 00:07:20;;;;;;;13.35;4.72;;;-1.00;99.90;;;-1.36;87.66;96576.38;171920;28;1205;-75
2021/12/25 00:07:26;;;;;;;14.73;4.63;;;-1.00;99.90;;;-1.36;87.63;96579.00;173199;28;1251;-75
2021/12/25 00:07:33;;;;;;;15.02;4.60;;;-1.00;99.90;;;-1.29;87.42;96590.69;173948;28;1345;-75
2021/12/25 00:07:39;;;;;;;16.10;4.95;;;-1.00;99.90;;;-1.46;87.54;96565.81;171871;28;1285;-75
2021/12/25 00:07:45;;;;;;;15.77;5.10;;;-1.00;99.90;;;-1.33;87.49;96586.66;173252;28;1293;-75
2021/12/25 00:07:51;;;;;;;16.92;5.38;;;-1.00;99.90;;;-1.32;87.40;96589.16;173288;28;1320;-74
2021/12/25 00:07:56;;;;;;;17.05;5.50;;;-1.00;99.90;;;-1.38;87.35;96578.31;172561;28;1425;-75
2021/12/25 00:08:03;;;;;;;16.63;5.55;;;-1.00;99.90;;;-1.28;87.56;96592.34;173233;28;1214;-74
2021/12/25 00:08:09;;;;;;;15.83;5.27;;;-1.00;99.90;;;-1.38;87.59;96579.13;172528;28;1709;-74
2021/12/25 00:08:15;;;;;;;14.70;5.13;;;-1.00;99.90;;;-1.36;87.75;96579.00;172562;28;1113;-75
2021/12/25 00:08:28;;;;;;;13.13;4.97;;;-1.00;99.90;;;-1.29;88.02;96593.31;171957;28;928;-75
2021/12/25 00:08:34;;;;;;;11.99;4.78;;;-1.00;99.90;;;-1.28;87.76;96589.72;171267;28;1251;-75
2021/12/25 00:08:40;;;;;;;11.47;4.77;;;-1.00;99.90;;;-1.32;87.75;96588.31;172616;28;1092;-74
2021/12/25 00:08:46;;;;;;;12.70;4.90;;;-1.00;99.90;;;-1.26;87.66;96590.44;173233;28;1304;-75
2021/12/25 00:08:52;;;;;;;13.48;5.07;;;-1.00;99.90;;;-1.25;87.87;96599.19;172516;28;1780;-75
2021/12/25 00:08:58;;;;;;;14.32;5.20;;;-1.00;99.90;;;-1.27;87.53;96596.66;171802;28;1537;-75
2021/12/25 00:09:06;;;;;;;15.32;5.25;;;-1.00;99.90;;;-1.28;87.94;96602.91;173362;28;1002;-75
2021/12/25 00:09:12;;;;;;;14.20;4.98;;;-1.00;99.90;;;-1.33;87.59;96591.94;173186;28;1471;-75
2021/12/25 00:09:18;;;;;;;13.32;4.56;;;-1.00;99.90;;;-1.27;87.72;96606.38;172549;28;916;-75
2021/12/25 00:09:25;;;;;;;12.82;4.03;;;-1.00;99.90;;;-1.36;87.82;96590.41;173238;28;1298;-75
2021/12/25 00:09:31;;;;;;;12.50;3.83;;;-1.00;99.90;;;-1.32;87.85;96599.72;173189;28;1458;-74
2021/12/25 00:09:36;;;;;;;12.15;3.78;;;-1.00;99.90;;;-1.31;87.78;96600.56;171906;28;903;-74
2021/12/25 00:09:43;;;;;;;13.07;4.00;;;-1.00;99.90;;;-1.29;87.61;96607.34;171287;28;1281;-74
2021/12/25 00:09:48;;;;;;;13.30;3.97;;;-1.00;99.90;;;-1.32;87.85;96596.25;171864;28;1661;-75
2021/12/25 00:09:54;;;;;;;12.25;4.00;;;-1.00;99.90;;;-1.31;87.89;96600.56;172579;28;1206;-75
2021/12/25 00:10:00;;;;;;;12.13;4.10;;;-1.00;99.90;;;-1.30;87.76;96600.44;173180;28;1252;-75
2021/12/25 00:10:08;;;;;;;11.93;4.00;;;-1.00;99.90;;;-1.34;87.76;96593.72;170546;28;1425;-75
2021/12/25 00:10:14;;;;;;;12.65;3.97;;;-1.00;99.90;;;-1.29;87.80;96603.88;171881;28;1255;-75
2021/12/25 00:10:20;;;;;;;12.68;4.18;;;-1.00;99.90;;;-1.39;87.37;96590.66;172546;28;977;-75
2021/12/25 00:10:30;;;;;;;12.82;4.22;;;-1.00;99.90;;;-1.57;87.20;96568.53;173220;28;1378;-75
2021/12/25 00:10:36;;;;;;;12.85;4.03;;;-1.00;99.90;;;-1.42;87.41;96588.31;172602;28;1144;-75
2021/12/25 00:10:42;;;;;;;12.18;4.28;;;-1.00;99.90;;;-1.33;87.52;96610.41;172561;28;1097;-75
2021/12/25 00:10:48;;;;;;;12.23;4.57;;;-1.00;99.90;;;-1.43;87.14;96597.19;172622;28;1238;-75
2021/12/25 00:10:57;;;;;;;14.17;4.60;;;-1.10;99.90;;;-1.40;87.35;96602.19;172599;28;1046;-74
2021/12/25 00:11:07;;;;;;;14.86;4.81;;;-1.00;99.90;;;-1.39;87.62;96601.22;171842;28;1753;-75
2021/12/25 00:11:14;;;;;;;14.44;4.65;;;-1.10;99.90;;;-1.41;87.49;96600.53;173256;28;1429;-75
2021/12/25 00:11:19;;;;;;;12.07;4.13;;;-1.00;99.90;;;-1.41;87.70;96595.25;173284;28;1395;-75
2021/12/25 00:11:25;;;;;;;12.05;4.47;;;-1.00;99.90;;;-1.36;88.11;96598.31;171833;28;1299;-75
2021/12/25 00:11:32;;;;;;;11.13;4.60;;;-1.00;99.90;;;-1.38;88.16;96599.41;172566;28;1359;-75
2021/12/25 00:11:38;;;;;;;11.96;4.66;;;-1.00;99.90;;;-1.39;88.40;96593.28;173178;28;1418;-75
2021/12/25 00:11:44;;;;;;;12.75;4.80;;;-1.00;99.90;;;-1.37;88.18;96594.00;173237;28;1419;-75
2021/12/25 00:11:49;;;;;;;12.60;4.82;;;-1.00;99.90;;;-1.37;88.66;96599.28;173267;28;1296;-74
2021/12/25 00:11:55;;;;;;;11.80;4.43;;;-1.00;99.90;;;-1.29;88.90;96603.88;172618;28;875;-75
2021/12/25 00:12:02;;;;;;;11.45;4.40;;;-1.10;99.90;;;-1.35;88.89;96597.31;171850;28;1543;-75
2021/12/25 00:12:09;;;;;;;10.92;4.62;;;-1.00;99.90;;;-1.40;88.53;96591.63;172477;28;1372;-75
2021/12/25 00:12:14;;;;;;;11.10;4.70;;;-1.00;99.90;;;-1.35;88.84;96596.53;173334;28;1363;-75
2021/12/25 00:12:20;;;;;;;11.10;4.70;;;-1.00;99.90;;;-1.35;88.58;96593.88;171293;28;887;-75
2021/12/25 00:12:27;;;;;;;11.48;4.80;;;-1.00;99.90;;;-1.31;88.76;96601.41;172447;28;1287;-75
2021/12/25 00:12:33;;;;;;;11.98;4.58;;;-1.00;99.90;;;-1.36;88.98;96592.22;173213;28;1573;-75
2021/12/25 00:12:40;;;;;;;12.56;4.52;;;-1.00;99.90;;;-1.33;88.95;96587.47;172375;28;1580;-74
2021/12/25 00:12:46;;;;;;;12.15;4.70;;;-1.00;99.90;;;-1.31;88.67;96605.84;173892;28;1714;-75
2021/12/25 00:12:53;;;;;;;13.05;4.65;;;-1.00;99.90;;;-1.31;89.04;96595.28;173340;28;671;-75
2021/12/25 00:13:00;;;;;;;14.03;4.72;;;-1.00;99.90;;;-1.30;88.73;96599.59;173146;28;1221;-75
2021/12/25 00:13:05;;;;;;;13.18;4.63;;;-1.00;99.90;;;-1.34;88.59;96584.97;171343;28;852;-75
2021/12/25 00:13:12;;;;;;;13.05;4.32;;;-1.00;99.90;;;-1.46;88.58;96571.06;173080;28;1430;-75
2021/12/25 00:13:19;;;;;;;13.50;4.30;;;-1.00;99.90;;;-1.42;88.39;96582.19;173296;28;902;-75
2021/12/25 00:13:25;;;;;;;13.17;4.30;;;-1.00;99.90;;;-1.37;88.37;96588.72;173165;28;1464;-74
2021/12/25 00:13:31;;;;;;;12.13;4.27;;;-1.00;99.90;;;-1.39;88.47;96584.53;173299;28;927;-75
2021/12/25 00:13:39;;;;;;;12.40;4.27;;;-1.00;99.90;;;-1.30;88.35;96596.94;172702;28;943;-75
2021/12/25 00:13:45;;;;;;;12.32;4.20;;;-1.00;99.90;;;-1.29;88.56;96604.72;173298;28;959;-74
2021/12/25 00:13:52;;;;;;;12.48;4.20;;;-1.00;99.90;;;-1.42;88.35;96576.91;171885;28;1258;-75
2021/12/25 00:13:58;;;;;;;12.28;4.30;;;-1.00;99.90;;;-1.34;88.48;96595.53;173060;28;1629;-75
2021/12/25 00:14:10;;;;;;;12.40;4.47;;;-1.00;99.90;;;-1.36;88.41;96590.41;174024;28;911;-75
2021/12/25 00:14:16;;;;;;;12.66;4.71;;;-1.00;99.90;;;-1.35;88.31;96596.53;173832;28;1410;-75
2021/12/25 00:14:22;;;;;;;12.45;4.70;;;-1.00;99.90;;;-1.30;88.41;96596.94;173240;28;1520;-75
2021/12/25 00:14:28;;;;;;;12.45;4.75;;;-1.00;99.90;;;-1.39;88.36;96581.91;171829;28;1319;-75
2021/12/25 00:14:34;;;;;;;14.35;4.82;;;-1.00;99.90;;;-1.36;88.29;96592.22;172607;28;960;-75
2021/12/25 00:14:40;;;;;;;14.98;4.80;;;-1.00;99.90;;;-1.47;87.98;96573.84;172565;28;1243;-75
2021/12/25 00:14:46;;;;;;;15.07;4.82;;;-1.00;99.90;;;-1.36;88.31;96593.03;172652;28;927;-74
2021/12/25 00:14:54;;;;;;;16.33;4.80;;;-1.00;99.90;;;-1.37;88.18;96588.72;171808;28;1906;-74
2021/12/25 00:15:00;;;;;;;16.15;4.72;;;-1.00;99.90;;;-1.40;87.90;96581.06;173015;28;1643;-75
2021/12/25 00:15:07;;;;;;;15.34;4.66;;;-1.00;99.90;;;-1.37;88.17;96593.16;171918;28;1236;-76
2021/12/25 00:15:13;;;;;;;16.83;4.80;;;-1.00;99.90;;;-1.37;88.14;96590.53;172553;28;1213;-75
2021/12/25 00:15:19;;;;;;;16.75;4.72;;;-1.00;99.90;;;-1.39;88.35;96590.66;172550;28;1393;-75
2021/12/25 00:15:25;;;;;;;15.18;4.72;;;-1.00;99.90;;;-1.38;88.41;96589.69;172761;28;939;-74
2021/12/25 00:15:31;;;;;;;15.07;4.73;;;-1.00;99.90;;;-1.53;88.21;96569.94;173937;28;1400;-75
2021/12/25 00:15:38;;;;;;;15.50;4.60;;;-1.00;99.90;;;-1.48;88.42;96573.00;172612;28;1038;-75
2021/12/25 00:15:44;;;;;;;13.24;4.46;;;-1.10;99.90;;;-1.45;88.39;96585.09;171804;28;1328;-75
2021/12/25 00:15:52;;;;;;;13.30;4.60;;;-1.00;99.90;;;-1.49;88.22;96573.13;171819;28;1319;-75
2021/12/25 00:15:58;;;;;;;14.90;4.67;;;-1.10;99.90;;;-1.49;88.05;96579.25;172409;28;1265;-74
2021/12/25 00:16:05;;;;;;;14.60;4.75;;;-1.10;99.90;;;-1.39;88.26;96595.94;173302;28;1026;-75
2021/12/25 00:16:11;;;;;;;14.17;4.80;;;-1.10;99.90;;;-1.36;88.43;96603.59;173108;28;1424;-75
2021/12/25 00:16:17;;;;;;;13.86;4.46;;;-1.10;99.90;;;-1.44;88.34;96582.31;171167;28;1420;-75
2021/12/25 00:16:23;;;;;;;12.35;4.20;;;-1.10;99.90;;;-1.44;88.26;96578.84;170561;28;1636;-76
2021/12/25 00:16:29;;;;;;;11.70;4.03;;;-1.10;99.90;;;-1.39;88.28;96592.47;171749;28;1394;-75
2021/12/25 00:16:35;;;;;;;11.55;4.20;;;-1.10;99.90;;;-1.43;88.28;96586.63;172522;28;1305;-75
2021/12/25 00:16:41;;;;;;;12.13;4.22;;;-1.10;99.90;;;-1.44;88.52;96584.13;171833;28;1000;-75
2021/12/25 00:16:47;;;;;;;11.63;4.47;;;-1.10;99.90;;;-1.44;88.39;96579.69;171228;28;1014;-75
2021/12/25 00:16:53;;;;;;;12.36;4.58;;;-1.10;99.90;;;-1.47;88.35;96579.97;171315;28;1027;-75
2021/12/25 00:17:00;;;;;;;13.07;4.85;;;-1.10;99.90;;;-1.42;88.16;96590.09;170496;28;1184;-75
2021/12/25 00:17:06;;;;;;;13.02;4.65;;;-1.10;99.90;;;-1.38;88.09;96596.78;173004;28;1629;-75
2021/12/25 00:17:12;;;;;;;12.45;4.60;;;-1.10;99.90;;;-1.41;88.09;96587.34;173014;28;1244;-74
2021/12/25 00:17:18;;;;;;;13.13;4.45;;;-1.10;99.90;;;-1.45;88.43;96582.47;173274;28;1030;-75
2021/12/25 00:17:26;;;;;;;12.45;4.57;;;-1.10;99.90;;;-1.38;88.26;96596.78;171997;28;927;-74
2021/12/25 00:17:33;;;;;;;12.73;4.33;;;-1.10;99.90;;;-1.43;87.97;96588.44;171987;28;939;-75
2021/12/25 00:17:38;;;;;;;15.04;4.74;;;-1.10;99.90;;;-1.46;88.22;96588.72;172463;28;1333;-74
2021/12/25 00:17:44;;;;;;;14.90;4.90;;;-1.10;99.90;;;-1.47;87.93;96581.75;171793;28;1507;-75
2021/12/25 00:17:50;;;;;;;15.25;5.10;;;-1.10;99.90;;;-1.42;88.00;96593.59;171979;28;953;-74
2021/12/25 00:17:56;;;;;;;15.07;5.00;;;-1.10;99.90;;;-1.39;88.35;96600.38;171831;28;1333;-75
2021/12/25 00:18:02;;;;;;;12.55;4.85;;;-1.10;99.90;;;-1.48;88.55;96566.88;171980;28;967;-75
2021/12/25 00:18:09;;;;;;;10.53;4.67;;;-1.10;99.90;;;-1.56;88.64;96561.47;173294;28;939;-74
2021/12/25 00:18:16;;;;;;;10.03;4.67;;;-1.10;99.90;;;-1.44;88.46;96584.94;173177;28;1291;-75
2021/12/25 00:18:22;;;;;;;11.40;4.44;;;-1.10;99.90;;;-1.39;88.65;96601.22;173916;28;1108;-74
2021/12/25 00:18:28;;;;;;;14.43;4.77;;;-1.10;99.90;;;-1.45;88.49;96593.84;173865;28;1108;-75
2021/12/25 00:18:38;;;;;;;15.75;4.88;;;-1.10;99.90;;;-1.47;88.43;96585.22;174037;28;931;-74
2021/12/25 00:18:44;;;;;;;16.47;4.43;;;-1.10;99.90;;;-1.44;88.44;96586.75;172559;28;1208;-75
2021/12/25 00:18:50;;;;;;;15.63;4.53;;;-1.10;99.90;;;-1.41;88.71;96595.25;172609;28;1034;-75
2021/12/25 00:18:56;;;;;;;14.65;4.43;;;-1.10;99.90;;;-1.56;88.57;96561.47;173075;28;1329;-75
2021/12/25 00:19:03;;;;;;;14.40;4.27;;;-1.10;99.90;;;-1.47;88.33;96587.88;174028;28;879;-75
2021/12/25 00:19:08;;;;;;;13.82;4.26;;;-1.10;99.90;;;-1.46;88.67;96580.78;173295;28;1132;-75
2021/12/25 00:19:15;;;;;;;15.00;4.45;;;-1.10;99.90;;;-1.47;88.82;96587.03;171145;28;1218;-75
2021/12/25 00:19:21;;;;;;;15.43;4.70;;;-1.20;99.90;;;-1.47;88.52;96589.69;173218;28;1391;-75
2021/12/25 00:19:27;;;;;;;16.33;4.82;;;-1.10;99.90;;;-1.47;88.64;96589.69;172554;28;1101;-75
2021/12/25 00:19:33;;;;;;;15.43;4.80;;;-1.10;99.90;;;-1.54;88.61;96572.69;171227;28;1418;-75
2021/12/25 00:19:39;;;;;;;15.07;4.97;;;-1.10;99.90;;;-1.42;88.61;96590.94;171190;28;1260;-74
2021/12/25 00:19:45;;;;;;;14.60;5.18;;;-1.10;99.90;;;-1.42;88.88;96598.88;171768;28;1354;-74
2021/12/25 00:19:51;;;;;;;14.25;4.85;;;-1.10;99.90;;;-1.53;88.40;96579.66;173359;28;844;-75
2021/12/25 00:19:56;;;;;;;12.80;4.93;;;-1.10;99.90;;;-1.43;88.66;96599.81;173190;28;1215;-75
2021/12/25 00:20:05;;;;;;;13.70;5.00;;;-1.10;99.90;;;-1.51;88.50;96581.19;171855;28;1014;-75
2021/12/25 00:20:11;;;;;;;12.92;4.98;;;-1.10;99.90;;;-1.53;88.52;96583.13;171655;28;1690;-75
2021/12/25 00:20:17;;;;;;;11.90;4.82;;;-1.10;99.90;;;-1.44;88.53;96587.59;172576;28;935;-75
2021/12/25 00:20:23;;;;;;;13.20;5.00;;;-1.10;99.90;;;-1.48;88.50;96585.38;172629;28;971;-74
2021/12/25 00:20:29;;;;;;;14.60;4.97;;;-1.10;99.90;;;-1.49;88.59;96589.81;172466;28;1267;-75
2021/12/25 00:20:35;;;;;;;13.98;4.70;;;-1.10;99.90;;;-1.49;88.36;96584.53;172665;28;1002;-75
2021/12/25 00:20:42;;;;;;;15.20;4.70;;;-1.10;99.90;;;-1.51;88.56;96588.28;171733;28;1232;-74
2021/12/25 00:20:48;;;;;;;14.53;4.60;;;-1.10;99.90;;;-1.52;88.54;96586.59;172612;28;1086;-75
2021/12/25 00:20:54;;;;;;;13.75;4.55;;;-1.10;99.90;;;-1.51;88.53;96591.75;172994;28;1628;-75
2021/12/25 00:21:01;;;;;;;13.97;4.50;;;-1.10;99.90;;;-1.53;88.19;96584.94;170571;29;1195;-74
2021/12/25 00:21:08;;;;;;;12.73;4.43;;;-1.10;99.90;;;-1.71;88.31;96556.53;172600;28;1467;-75
2021/12/25 00:21:14;;;;;;;12.48;4.32;;;-1.20;99.90;;;-1.50;88.16;96589.97;171891;28;1206;-75
2021/12/25 00:21:20;;;;;;;13.38;4.47;;;-1.20;99.90;;;-1.53;88.44;96577.00;171903;28;897;-74
2021/12/25 00:21:25;;;;;;;14.60;4.47;;;-1.20;99.90;;;-1.50;88.04;96587.31;170474;29;1227;-74
2021/12/25 00:21:32;;;;;;;13.95;4.72;;;-1.20;99.90;;;-1.50;88.35;96589.97;171303;28;1007;-75
2021/12/25 00:21:38;;;;;;;15.40;4.90;;;-1.20;99.90;;;-1.52;87.95;96582.16;172593;28;1358;-74
2021/12/25 00:21:44;;;;;;;15.45;4.95;;;-1.20;99.90;;;-1.50;88.24;96596.03;171854;28;1320;-74
2021/12/25 00:21:50;;;;;;;13.90;4.93;;;-1.20;99.90;;;-1.54;88.12;96584.09;171859;28;1354;-75
2021/12/25 00:21:56;;;;;;;12.73;4.93;;;-1.20;99.90;;;-1.53;88.48;96582.28;173103;28;1522;-75
2021/12/25 00:22:02;;;;;;;13.27;4.95;;;-1.10;99.90;;;-1.51;88.60;96588.28;171979;28;1002;-74
2021/12/25 00:22:09;;;;;;;12.02;4.70;;;-1.20;99.90;;;-1.51;88.32;96585.66;172599;28;955;-74
2021/12/25 00:22:15;;;;;;;12.32;4.58;;;-1.20;99.90;;;-1.47;88.29;96589.69;172551;28;859;-75
2021/12/25 00:22:21;;;;;;;12.13;4.43;;;-1.20;99.90;;;-1.53;87.99;96585.78;174017;28;1017;-75
2021/12/25 00:22:27;;;;;;;12.05;4.40;;;-1.20;99.90;;;-1.60;88.14;96576.72;172489;28;1445;-75
2021/12/25 00:22:33;;;;;;;11.80;4.47;;;-1.20;99.90;;;-1.48;88.14;96598.56;171944;28;966;-74
2021/12/25 00:22:39;;;;;;;12.33;4.70;;;-1.20;99.90;;;-1.62;88.07;96575.19;173237;28;1316;-74
2021/12/25 00:22:45;;;;;;;12.38;4.85;;;-1.20;99.90;;;-1.54;88.12;96583.25;172018;28;1802;-74
2021/12/25 00:22:51;;;;;;;13.30;5.00;;;-1.20;99.90;;;-1.49;88.24;96594.25;172228;28;1916;-75
2021/12/25 00:22:59;;;;;;;12.43;4.93;;;-1.20;99.90;;;-1.61;88.18;96575.06;171241;28;887;-74
2021/12/25 00:23:07;;;;;;;11.47;4.70;;;-1.20;99.90;;;-1.52;88.25;96584.81;172669;28;875;-75
2021/12/25 00:23:13;;;;;;;12.33;4.67;;;-1.20;99.90;;;-1.55;88.10;96577.13;173163;28;1426;-75
2021/12/25 00:23:19;;;;;;;12.33;4.67;;;-1.20;99.90;;;-1.50;88.30;96595.25;172619;28;1110;-74
2021/12/25 00:23:25;;;;;;;12.02;4.57;;;-1.20;99.90;;;-1.53;88.48;96588.41;171184;28;1459;-75
2021/12/25 00:23:31;;;;;;;12.98;4.65;;;-1.20;99.90;;;-1.51;87.93;96594.41;171198;28;1221;-75
2021/12/25 00:23:38;;;;;;;14.60;5.10;;;-1.20;99.90;;;-1.55;88.37;96582.41;172563;28;1117;-75
2021/12/25 00:23:44;;;;;;;14.26;4.76;;;-1.20;99.90;;;-1.61;88.02;96569.78;171015;28;1595;-74
2021/12/25 00:23:51;;;;;;;13.45;4.60;;;-1.20;99.90;;;-1.59;87.96;96575.75;170611;29;868;-74
2021/12/25 00:23:57;;;;;;;13.02;4.50;;;-1.20;99.90;;;-1.85;87.96;96530.53;169862;29;1471;-75
2021/12/25 00:24:04;;;;;;;11.80;3.93;;;-1.20;99.90;;;-1.60;88.11;96568.78;170629;29;1436;-75
2021/12/25 00:24:11;;;;;;;11.38;3.92;;;-1.30;99.90;;;-1.56;88.22;96579.94;170453;29;1540;-75
2021/12/25 00:24:17;;;;;;;10.97;4.10;;;-1.20;99.90;;;-1.55;88.17;96582.41;173240;28;1402;-74
2021/12/25 00:24:23;;;;;;;11.98;4.30;;;-1.20;99.90;;;-1.52;88.27;96582.16;173290;28;875;-75
2021/12/25 00:24:28;;;;;;;11.25;4.30;;;-1.20;99.90;;;-1.46;88.26;96594.00;173202;28;1289;-75
2021/12/25 00:24:35;;;;;;;11.30;4.40;;;-1.20;99.90;;;-1.45;88.74;96598.31;171928;28;975;-74
2021/12/25 00:24:44;;;;;;;12.52;4.53;;;-1.20;99.90;;;-1.48;88.11;96593.28;173273;28;979;-74
2021/12/25 00:24:50;;;;;;;12.75;4.45;;;-1.20;99.90;;;-1.50;88.42;96582.03;172534;28;1146;-75
2021/12/25 00:24:56;;;;;;;13.23;4.53;;;-1.20;99.90;;;-1.54;88.29;96583.25;172628;28;994;-75
2021/12/25 00:25:02;;;;;;;15.07;4.70;;;-1.20;99.90;;;-1.52;88.35;96583.97;171664;28;1318;-75
2021/12/25 00:25:09;;;;;;;14.60;4.68;;;-1.20;99.90;;;-1.50;88.48;96589.97;172368;28;1617;-74
2021/12/25 00:25:15;;;;;;;13.78;4.54;;;-1.20;99.90;;;-1.55;88.62;96581.59;172348;28;1465;-75
2021/12/25 00:25:22;;;;;;;14.38;4.45;;;-1.20;99.90;;;-1.58;88.38;96582.69;173011;28;1740;-75
2021/12/25 00:25:32;;;;;;;13.95;4.07;;;-1.20;99.90;;;-1.52;88.27;96592.72;172546;28;1459;-75
2021/12/25 00:25:44;;;;;;;11.67;3.70;;;-1.20;99.90;;;-1.58;87.94;96581.88;173276;28;973;-74
2021/12/25 00:25:57;;;;;;;12.06;3.81;;;-1.30;99.90;;;-1.68;87.98;96573.09;173215;28;1354;-75
2021/12/25 00:26:10;;;;;;;15.55;4.45;;;-1.30;99.90;;;-1.51;88.24;96596.19;171275;28;1392;-75
2021/12/25 00:26:35;;;;;;;16.31;4.76;;;-1.20;99.90;;;-1.51;88.59;96598.84;171237;28;1411;-75
2021/12/25 00:27:04;;;;;;;11.50;4.10;;;-1.30;99.90;;;-1.58;87.94;96589.78;171943;28;978;-74
2021/12/25 00:28:03;;;;;;;11.39;4.32;;;-1.30;99.90;;;-1.62;88.53;96577.84;172568;28;1220;-75
2021/12/25 00:28:17;;;;;;;13.34;4.15;;;-1.30;99.90;;;-1.66;88.52;96582.56;171706;28;1294;-75
2021/12/25 00:29:04;;;;;;;11.83;4.02;;;-1.40;99.90;;;-1.70;88.15;96583.75;173347;28;1217;-75
2021/12/25 00:29:15;;;;;;;12.94;4.18;;;-1.40;99.90;;;-1.67;88.41;96593.22;172391;28;1256;-75
2021/12/25 00:30:18;;;;;;;12.94;4.16;;;-1.40;99.90;;;-1.80;88.90;96578.47;171928;28;1212;-74
2021/12/25 00:30:36;;;;;;;13.05;4.69;;;-1.40;99.90;;;-1.75;88.79;96592.09;173086;28;1408;-75
2021/12/25 00:31:30;;;;;;;11.77;4.38;;;-1.40;99.90;;;-1.85;88.76;96572.75;172644;28;847;-75
2021/12/25 00:31:56;;;;;;;13.46;4.38;;;-1.40;99.90;;;-1.79;88.74;96581.94;172606;28;1223;-75
2021/12/25 00:33:18;;;;;;;11.43;4.68;;;-1.40;99.90;;;-1.78;88.89;96589.72;172545;28;1197;-75
2021/12/25 00:33:53;;;;;;;12.38;4.46;;;-1.40;99.90;;;-1.73;89.33;96592.78;172645;28;1243;-74
2021/12/25 00:34:01;;;;;;;13.36;4.55;;;-1.40;99.90;;;-1.71;89.18;96596.13;172526;28;1259;-74
2021/12/25 00:34:07;;;;;;;15.67;4.93;;;-1.40;99.90;;;-1.66;89.30;96606.28;170495;28;1311;-74
2021/12/25 00:34:15;;;;;;;15.20;4.65;;;-1.40;99.90;;;-1.70;89.29;96599.59;171185;28;1225;-74
2021/12/25 00:34:23;;;;;;;14.07;4.40;;;-1.40;99.90;;;-1.66;88.89;96610.72;172999;28;1477;-74
2021/12/25 00:34:29;;;;;;;13.53;4.44;;;-1.40;99.90;;;-1.65;89.12;96607.09;172373;28;1436;-74
2021/12/25 00:34:37;;;;;;;11.63;4.10;;;-1.40;99.90;;;-1.73;89.35;96592.78;172639;28;1053;-74
2021/12/25 00:34:43;;;;;;;10.55;4.00;;;-1.40;99.90;;;-1.81;89.35;96582.06;171914;28;925;-74
2021/12/25 00:34:50;;;;;;;11.10;4.00;;;-1.40;99.90;;;-1.71;88.97;96590.84;171258;28;936;-74